Weather History for KADH - November, 2013

Change the Weather History Date:

Friday, November 22, 2013

  Actual Average Record
Temperature  
Mean Temperature 31 °F -  
Max Temperature 32 °F 61 °F 82 °F (1955)
Min Temperature 30 °F 38 °F 20 °F (1964)
Degree Days  
Heating Degree Days 34    
Moisture  
Dew Point 31 °F    
Average Humidity 97    
Maximum Humidity 100    
Minimum Humidity 87    
Precipitation  
Precipitation 0.17 in - - ()
Sea Level Pressure  
Sea Level Pressure 30.45 in    
Wind  
Wind Speed 17 mph (North)    
Max Wind Speed 24 mph    
Max Gust Speed 34 mph    
Visibility 8 miles    
Events Rain    
Averages and records for this station are not official NWS values.
T = Trace of Precipitation, MM = Missing Value Source: NWS Daily Summary

Daily Weather History Graph

Daily Weather History Graph

Search for Another Location

Airport or City:

Trip Planner

Search our weather history database for the weather conditions in past years. The results will help you decide how hot, cold, wet, or windy it might be!

Date:

Astronomy

Nov. 22, 2013 Rise Set
Actual Time 7:07 AM CST 5:17 PM CST
Civil Twilight 6:40 AM CST 5:45 PM CST
Nautical Twilight 6:09 AM CST 6:15 PM CST
Astronomical Twilight 5:39 AM CST 6:46 PM CST
Moon 9:47 PM CST 10:54 AM CST
Length of Visible Light 11h 04m
Length of Day
10h 10m
Waning Gibbous, 78% of the Moon is Illuminated
Nov 22
Waning Gibbous
Nov 25
Last Quarter
Dec 2
New
Dec 9
First Quarter
Dec 17
Full

Hourly Weather History & Observations

Time (CST) Temp. Windchill Dew Point Humidity Pressure Visibility Wind Dir Wind Speed Gust Speed Precip Events Conditions
12:15 AM 32.0 °F 19.8 °F 32.0 °F 100% 30.34 in 4.0 mi North 20.7 mph 27.6 mph N/A   Light Drizzle
12:55 AM 32.0 °F 20.1 °F 32.0 °F 100% 30.35 in 3.0 mi North 19.6 mph 27.6 mph N/A   Overcast
1:15 AM 32.0 °F 19.2 °F 32.0 °F 100% 30.34 in 5.0 mi North 23.0 mph 31.1 mph N/A   Overcast
1:35 AM 32.0 °F 20.1 °F 32.0 °F 100% 30.35 in 5.0 mi North 19.6 mph 31.1 mph N/A   Overcast
1:55 AM 32.0 °F 20.1 °F 32.0 °F 100% 30.36 in 5.0 mi North 19.6 mph 33.4 mph N/A   Overcast
2:15 AM 32.0 °F 21.2 °F 32.0 °F 100% 30.38 in 5.0 mi North 16.1 mph 26.5 mph N/A   Overcast
2:35 AM 32.0 °F 20.1 °F 32.0 °F 100% 30.37 in 5.0 mi North 19.6 mph 28.8 mph N/A   Overcast
2:55 AM 32.0 °F 18.9 °F 32.0 °F 100% 30.37 in 7.0 mi North 24.2 mph 34.5 mph N/A   Overcast
3:15 AM 30.2 °F 19.8 °F 30.2 °F 100% 30.39 in 10.0 mi North 13.8 mph 27.6 mph N/A   Overcast
3:35 AM 30.2 °F 17.4 °F 30.2 °F 100% 30.38 in 10.0 mi North 20.7 mph 27.6 mph N/A   Overcast
3:55 AM 30.2 °F 16.8 °F 30.2 °F 100% 30.37 in 10.0 mi North 23.0 mph 31.1 mph N/A   Overcast
4:15 AM 30.2 °F 18.9 °F 30.2 °F 100% 30.37 in 10.0 mi North 16.1 mph 31.1 mph N/A   Overcast
4:35 AM 30.2 °F 18.1 °F 30.2 °F 100% 30.38 in 10.0 mi North 18.4 mph 27.6 mph N/A   Overcast
4:55 AM 30.2 °F 20.2 °F 30.2 °F 100% 30.39 in 10.0 mi North 12.7 mph 24.2 mph N/A   Overcast
5:15 AM 30.2 °F 19.3 °F 30.2 °F 100% 30.40 in 10.0 mi North 15.0 mph 21.9 mph N/A   Overcast
5:35 AM 30.2 °F 17.4 °F 30.2 °F 100% 30.40 in 10.0 mi North 20.7 mph 32.2 mph N/A   Overcast
5:55 AM 30.2 °F 18.9 °F 30.2 °F 100% 30.41 in 10.0 mi North 16.1 mph 28.8 mph N/A   Overcast
6:15 AM 30.2 °F 17.4 °F 30.2 °F 100% 30.43 in 10.0 mi North 20.7 mph 31.1 mph N/A   Overcast
6:35 AM 30.2 °F 20.2 °F 28.4 °F 93% 30.44 in 10.0 mi North 12.7 mph 26.5 mph N/A   Overcast
6:55 AM 30.2 °F 17.8 °F 28.4 °F 93% 30.44 in 10.0 mi North 19.6 mph 27.6 mph N/A   Overcast
7:15 AM 30.2 °F 17.1 °F 30.2 °F 100% 30.45 in 10.0 mi North 21.9 mph 26.5 mph N/A   Overcast
7:35 AM 30.2 °F 19.8 °F 28.4 °F 93% 30.46 in 10.0 mi North 13.8 mph 24.2 mph N/A   Overcast
7:55 AM 30.2 °F 18.9 °F 28.4 °F 93% 30.47 in 10.0 mi North 16.1 mph 24.2 mph N/A   Overcast
8:15 AM 30.2 °F 17.4 °F 28.4 °F 93% 30.47 in 10.0 mi North 20.7 mph 26.5 mph N/A   Overcast
8:35 AM 30.2 °F 19.3 °F 28.4 °F 93% 30.49 in 10.0 mi North 15.0 mph 23.0 mph N/A   Overcast
8:55 AM 30.2 °F 18.1 °F 28.4 °F 93% 30.49 in 10.0 mi North 18.4 mph 27.6 mph N/A   Overcast
9:15 AM 30.2 °F 17.8 °F 28.4 °F 93% 30.48 in 10.0 mi North 19.6 mph 28.8 mph N/A   Overcast
9:35 AM 30.2 °F 17.8 °F 28.4 °F 93% 30.48 in 10.0 mi North 19.6 mph 28.8 mph N/A   Light Freezing Rain
9:55 AM 30.2 °F 17.4 °F 28.4 °F 93% 30.48 in 10.0 mi North 20.7 mph 28.8 mph N/A Rain Light Freezing Rain
10:15 AM 30.2 °F 18.1 °F 28.4 °F 93% 30.48 in 10.0 mi NNE 18.4 mph 26.5 mph N/A Rain Light Freezing Rain
10:35 AM 30.2 °F 18.5 °F 30.2 °F 100% 30.49 in 10.0 mi NNE 17.3 mph 20.7 mph N/A Rain Light Freezing Rain
10:55 AM 32.0 °F 21.6 °F 30.2 °F 93% 30.49 in 10.0 mi North 15.0 mph 21.9 mph N/A Rain Light Rain
11:15 AM 32.0 °F 21.2 °F 30.2 °F 93% 30.48 in 10.0 mi North 16.1 mph 23.0 mph N/A   Overcast
11:35 AM 32.0 °F 20.8 °F 30.2 °F 93% 30.49 in 10.0 mi North 17.3 mph 27.6 mph N/A   Overcast
11:55 AM 32.0 °F 22.5 °F 28.4 °F 87% 30.48 in 10.0 mi North 12.7 mph 26.5 mph N/A   Overcast
12:15 PM 32.0 °F 19.5 °F 28.4 °F 87% 30.46 in 10.0 mi North 21.9 mph 31.1 mph N/A   Overcast
12:35 PM 32.0 °F 19.8 °F 28.4 °F 87% 30.47 in 10.0 mi North 20.7 mph 26.5 mph N/A   Overcast
12:55 PM 32.0 °F 20.1 °F 28.4 °F 87% 30.47 in 10.0 mi North 19.6 mph 25.3 mph N/A   Overcast
1:15 PM 32.0 °F 20.1 °F 28.4 °F 87% 30.46 in 10.0 mi North 19.6 mph 27.6 mph N/A   Overcast
1:35 PM 32.0 °F 22.1 °F 28.4 °F 87% 30.47 in 10.0 mi North 13.8 mph 25.3 mph N/A   Overcast
1:55 PM 32.0 °F 20.1 °F 28.4 °F 87% 30.45 in 10.0 mi North 19.6 mph 27.6 mph N/A   Overcast
2:15 PM 30.2 °F 18.9 °F 30.2 °F 100% 30.44 in 5.0 mi North 16.1 mph 28.8 mph N/A   Overcast
2:35 PM 30.2 °F 18.5 °F 30.2 °F 100% 30.45 in 10.0 mi North 17.3 mph 26.5 mph N/A   Light Freezing Rain
2:55 PM 30.2 °F 19.3 °F 30.2 °F 100% 30.45 in 4.0 mi North 15.0 mph 23.0 mph 0.01 in Rain Light Freezing Rain
3:15 PM 30.2 °F 19.8 °F 30.2 °F 100% 30.46 in 3.0 mi North 13.8 mph 25.3 mph 0.03 in Rain Light Freezing Rain
3:35 PM 30.2 °F 21.3 °F 30.2 °F 100% 30.47 in 5.0 mi North 10.4 mph 21.9 mph 0.06 in Rain Light Freezing Rain
3:55 PM 32.0 °F 22.5 °F 32.0 °F 100% 30.47 in 2.0 mi North 12.7 mph 16.1 mph 0.09 in   Overcast
4:15 PM 32.0 °F 22.5 °F 32.0 °F 100% 30.46 in 4.0 mi North 12.7 mph 23.0 mph 0.02 in Rain Light Rain
4:35 PM 32.0 °F 21.6 °F 32.0 °F 100% 30.46 in 4.0 mi North 15.0 mph 23.0 mph 0.03 in Rain Light Rain
4:55 PM 32.0 °F 23.0 °F 32.0 °F 100% 30.47 in 5.0 mi North 11.5 mph 20.7 mph 0.03 in Rain Rain
5:15 PM 32.0 °F 21.6 °F 32.0 °F 100% 30.47 in 4.0 mi North 15.0 mph 20.7 mph 0.01 in Rain Rain
5:35 PM 32.0 °F 22.5 °F 32.0 °F 100% 30.47 in 5.0 mi North 12.7 mph 18.4 mph 0.01 in   Drizzle
5:55 PM 32.0 °F 23.0 °F 32.0 °F 100% 30.47 in 7.0 mi North 11.5 mph 16.1 mph 0.01 in   Drizzle
6:15 PM 32.0 °F 21.2 °F 32.0 °F 100% 30.47 in 10.0 mi North 16.1 mph 23.0 mph N/A   Overcast
6:35 PM 32.0 °F 22.5 °F 32.0 °F 100% 30.47 in 10.0 mi North 12.7 mph 21.9 mph N/A   Light Drizzle
6:55 PM 32.0 °F 24.2 °F 32.0 °F 100% 30.48 in 10.0 mi North 9.2 mph 20.7 mph N/A   Overcast
7:15 PM 32.0 °F 22.1 °F 32.0 °F 100% 30.48 in 10.0 mi North 13.8 mph 18.4 mph N/A   Light Drizzle
7:35 PM 32.0 °F 24.8 °F 32.0 °F 100% 30.47 in 10.0 mi North 8.1 mph 20.7 mph N/A Rain Light Rain
7:55 PM 32.0 °F 24.2 °F 32.0 °F 100% 30.48 in 10.0 mi North 9.2 mph - N/A Rain Rain
8:15 PM 32.0 °F 23.6 °F 32.0 °F 100% 30.48 in 10.0 mi North 10.4 mph - N/A Rain Rain
8:35 PM 32.0 °F 23.6 °F 32.0 °F 100% 30.50 in 10.0 mi North 10.4 mph 16.1 mph N/A   Light Drizzle
8:55 PM 32.0 °F 24.2 °F 32.0 °F 100% 30.49 in 7.0 mi North 9.2 mph 18.4 mph N/A Rain Light Rain
9:15 PM 30.2 °F 21.3 °F 30.2 °F 100% 30.49 in 7.0 mi North 10.4 mph 17.3 mph N/A Rain Light Freezing Rain
9:35 PM 30.2 °F 21.3 °F 30.2 °F 100% 30.49 in 7.0 mi North 10.4 mph - N/A   Light Freezing Rain
9:55 PM 32.0 °F 25.6 °F 32.0 °F 100% 30.50 in 7.0 mi North 6.9 mph 16.1 mph N/A Rain Rain
10:15 PM 32.0 °F 23.0 °F 32.0 °F 100% 30.50 in 4.0 mi North 11.5 mph 17.3 mph 0.01 in Rain Light Rain
10:35 PM 32.0 °F 24.2 °F 32.0 °F 100% 30.50 in 4.0 mi North 9.2 mph 20.7 mph 0.02 in Rain Light Rain
10:55 PM 32.0 °F 24.2 °F 32.0 °F 100% 30.50 in 5.0 mi North 9.2 mph 18.4 mph 0.03 in Rain Light Rain
11:15 PM 32.0 °F 23.6 °F 32.0 °F 100% 30.50 in 7.0 mi North 10.4 mph 16.1 mph N/A Rain Light Rain
11:35 PM 32.0 °F 24.2 °F 32.0 °F 100% 30.51 in 7.0 mi North 9.2 mph - N/A   Drizzle
11:55 PM 32.0 °F 24.2 °F 32.0 °F 100% 30.52 in 5.0 mi North 9.2 mph 16.1 mph N/A   Heavy Drizzle